首页
METAR-TAF:

METAR-TAF

机场 :

帶廣機場

帶廣, 日本

纬度: 42-44N, 经度: 143-13E, 海拔: 149米

当前天气观测

该预报发布于21分钟前的01:00 UTC
风速4节,风向西北,在西转西南北转西北之间变化
温度 10°C
湿度 93%
气压 1017 hPa
能見度: 4000
少量云层高于400英尺
散云层高于500英尺
多云层高于700英尺
小阵雨, 轻雾

METAR: RJCB 240100Z 31004KT 250V330 4000 -SHRA BR FEW004 SCT005 BKN007 10/09 Q1017

时间: 10:21 (01:21 UTC)

预报

该预报发布于43分钟前的00:38 UTC
预报有效从24日的 00点(UTC)到 25日的 06点(UTC)
风速5节,风向西转西北
能见度10公里或以上
少量云层高于500英尺
多云层高于2500英尺
小阵雨
短暂存在
从 24日的 00点(UTC)到 24日的 03点(UTC)
能見度: 4000
少量云层高于300英尺
多云层高于500英尺
阵雨, 轻雾
成为
从 24日的 03点(UTC)到 24日的 05点(UTC)
风速8节,风向南转南东
短暂存在
从 24日的 03点(UTC)到 24日的 07点(UTC)
能見度: 3000
多云层高于500英尺
多云层高于2500英尺
少量云层高于2500英尺, 积雨云.
雷暴, 雨, 轻雾
成为
从 24日的 08点(UTC)到 24日的 10点(UTC)
风速10节,风向
短暂存在
从 24日的 15点(UTC)到 25日的 00点(UTC)
能見度: 0700
层高于100英尺

TAF: RJCB 240038Z 2400/2506 30005KT 9999 -SHRA FEW005 BKN025 TEMPO 2400/2403 4000 SHRA BR FEW003 BKN005 BECMG 2403/2405 16008KT TEMPO 2403/2407 3000 TSRA BR BKN005 BKN025 FEW025CB BECMG 2408/2410 35010KT TEMPO 2415/2500 0700 FG VV001

超过4000个机场的气象观测和天气预报(METAR&TAF报告)。

可查询的气象台以黄色和红色小点在地图上表示。

将鼠标移到小点上方,可查看气象台名称。

然后点击查看天气观测和预报。

如需切换地图:点击带黑十字的绿色按钮放大地图;点击带横线的绿色按钮缩小地图;或者点击绿色箭头查看邻近地区的地图。


METAR-TAF: